Cromwell, CT (06416)

9:15 AM EDT on April 21, 2015 (GMT -0400)
Cromwell Hills | | Change Station
CLOSE
Current Station
Personal Weather Station
Location: Cromwell, CT
Elevation: 36 ft
Nearby Weather Stations
Active Advisory: Flood Warning

Elev 36 ft 41.60 °N, 72.68 °W | Updated 7 minutes ago

Overcast
Overcast
54.0 °F
Feels Like 54.0 °F
N
1.6
Wind Variable Wind from ENE

Today
High -- | Low -- °F
--% Chance of Precip.
Yesterday
High -- | Low -- °F
Precip. -- in
6:01 AM 7:37 PM
Waxing Crescent, 10% visible
Pressure 29.57 in
Visibility 5.0 miles
Clouds Overcast 500 ft
Dew Point 53 °F
Humidity 95%
Rainfall 0.44 in
Snow Depth Not available.
UV 1 out of 12
Pollen 6.20 out of 12
Air Quality Not available.
Flu Activity Widespread
METAR KHFD 211253Z VRB04KT 5SM BR OVC005 11/09 A2957 RMK AO2 SLP012 T01110094

More Conditions Fewer Conditions

Pressure 29.57 in
Visibility 5.0 miles
Clouds Overcast 500 ft
Dew Point 53 °F
Humidity 95%
Rainfall 0.44 in
Snow Depth Not available.
UV 1 out of 12
Pollen 6.20 out of 12
Air Quality Not available.
Flu Activity Widespread
METAR KHFD 211253Z VRB04KT 5SM BR OVC005 11/09 A2957 RMK AO2 SLP012 T01110094

More Conditions Fewer Conditions

10-Day Weather Forecast

Almanac

Astronomy

Apr. 21, 2015 Rise Set
Actual Time
Civil Twilight
Nautical Twilight
Astronomical Twilight
Moon
Length of Visible Light
Length of Day
Tomorrow will be .
, % of the Moon is Illuminated

Today's Extremes

State Highs State Lows

Community

WunderPhotos

Upload Photos

1,815,370 photos uploaded!

WunderBlogs® & News

Nearby

Air Quality

  Air Quality AQ Index Pollutant
Not available.

Snow Depth

Station Depth Elevation

Earthquake Activity

City Distance Mag. Time & Date
Minimum magnitude displayed is 2.5.

Coastal Water Temperatures

Place Temperature

Stations

Nearby Weather Stations

Station Location Temp. Windchill Dew Point Humidity Wind Precip. Elev Updated Type
                   
Flood Warning
Statement as of 6:11 AM EDT on April 21, 2015

The Flood Warning continues for
the Connecticut River at Middle Haddam.
* Until Wednesday morning... or until the warning is cancelled.
* At 5:55 am Tuesday the stage was 7.3 feet.
* Flood stage is 7.0 feet.
* Minor flooding is occurring and minor flooding is forecast.
* Forecast... the river will continue to fall to below flood stage by
early tomorrow.
* Impact... at 7.0 feet... flooding is likely in the vicinity of Meadow
Road, Route 17a, in the Gildersleeve section of Portland. A portion
of this roadway will likely be closed. This includes the exchange
club of Portland Fairgrounds. Boating interests should prepare for
a period of swift river flows during this period.


Lat... Lon 4164 7269 4164 7258 4129 7225 4126 7239
      4141 7251 4156 7270